Time;durP1;ratioP1;P1;durP2;ratioP2;P2;SDS_P1;SDS_P2;PMS_P1;PMS_P2;Temp;Humidity;BMP_temperature;BMP_pressure;BME280_temperature;BME280_humidity;BME280_pressure;Samples;Min_cycle;Max_cycle;Signal;HPM_P1;HPM_P2
2021/05/07 00:02:57;;;;;;;4.60;2.25;;;;;;;7.73;100.00;99513.59;20854836;28;20042;-69
2021/05/07 00:12:59;;;;;;;4.35;2.33;;;;;;;7.73;100.00;99530.97;20849684;28;20075;-69
2021/05/07 00:23:01;;;;;;;5.85;2.70;;;;;;;7.80;100.00;99534.09;20889347;28;20095;-69
2021/05/07 00:33:05;;;;;;;5.63;2.80;;;;;;;7.63;100.00;99540.25;20847118;28;20052;-70
2021/05/07 00:43:07;;;;;;;4.05;1.85;;;;;;;7.57;100.00;99533.59;20867589;28;20050;-73
2021/05/07 00:53:09;;;;;;;4.45;2.20;;;;;;;7.51;100.00;99546.16;20838451;28;20045;-69
2021/05/07 01:03:10;;;;;;;4.30;2.28;;;;;;;7.51;100.00;99560.00;20870155;28;20045;-69
2021/05/07 01:13:12;;;;;;;7.50;2.15;;;;;;;7.51;100.00;99553.97;20867112;28;20041;-69
2021/05/07 01:23:15;;;;;;;5.05;2.67;;;;;;;7.37;100.00;99565.09;20861956;28;20127;-69
2021/05/07 01:33:17;;;;;;;5.43;3.08;;;;;;;7.28;100.00;99571.66;20858864;28;20045;-69
2021/05/07 01:43:20;;;;;;;6.63;3.63;;;;;;;7.29;100.00;99569.91;20871054;28;20087;-69
2021/05/07 01:53:21;;;;;;;6.43;3.83;;;;;;;7.27;100.00;99556.13;20871175;28;20413;-70
2021/05/07 02:03:22;;;;;;;7.32;4.55;;;;;;;7.34;100.00;99554.03;20851480;28;20045;-69
2021/05/07 02:13:24;;;;;;;9.70;5.55;;;;;;;7.07;100.00;99562.41;20866963;28;20095;-70
2021/05/07 02:23:25;;;;;;;7.88;4.90;;;;;;;6.93;100.00;99574.47;20875993;28;20103;-68
2021/05/07 02:33:26;;;;;;;9.05;4.93;;;;;;;6.91;100.00;99573.72;20854397;28;20057;-70
2021/05/07 02:43:30;;;;;;;8.02;5.15;;;;;;;6.98;100.00;99596.72;20893443;28;20099;-69
2021/05/07 02:53:32;;;;;;;9.35;5.53;;;;;;;6.94;100.00;99591.75;20860770;28;20049;-68
2021/05/07 03:03:33;;;;;;;9.02;5.75;;;;;;;6.86;100.00;99595.56;20853072;28;20493;-70
2021/05/07 03:13:35;;;;;;;9.23;5.45;;;;;;;6.84;100.00;99612.19;20834760;28;20592;-69
2021/05/07 03:23:36;;;;;;;9.13;5.00;;;;;;;6.79;100.00;99629.81;20865567;28;20052;-69
2021/05/07 03:33:38;;;;;;;9.50;5.80;;;;;;;6.78;100.00;99638.53;20874368;28;20282;-68
2021/05/07 03:43:40;;;;;;;8.52;4.95;;;;;;;6.81;100.00;99649.59;20820961;28;20485;-69
2021/05/07 03:53:41;;;;;;;10.50;5.93;;;;;;;6.78;100.00;99647.16;20839541;28;20095;-69
2021/05/07 04:03:43;;;;;;;10.90;6.18;;;;;;;6.78;100.00;99667.13;20843897;28;20049;-71
2021/05/07 04:13:45;;;;;;;11.93;6.53;;;;;;;6.69;100.00;99691.00;20897610;28;20086;-69
2021/05/07 04:23:47;;;;;;;14.73;7.72;;;;;;;6.71;100.00;99721.19;20896264;28;20046;-72
2021/05/07 04:33:48;;;;;;;13.20;7.32;;;;;;;6.69;100.00;99736.06;20865990;28;20095;-69
2021/05/07 04:43:50;;;;;;;13.45;7.43;;;;;;;6.72;100.00;99748.88;20867285;28;20045;-71
2021/05/07 04:53:51;;;;;;;14.75;8.02;;;;;;;6.79;100.00;99776.28;20871753;28;20037;-69
2021/05/07 05:03:53;;;;;;;11.93;7.05;;;;;;;6.93;100.00;99782.56;20854367;22;20053;-69
2021/05/07 05:13:54;;;;;;;21.63;16.77;;;;;;;6.97;100.00;99795.34;21017584;28;20046;-70
2021/05/07 05:23:56;;;;;;;8.73;5.72;;;;;;;7.17;100.00;99803.00;21078815;28;20044;-70
2021/05/07 05:33:57;;;;;;;11.68;6.45;;;;;;;7.34;100.00;99824.75;21090094;28;20498;-70
2021/05/07 05:43:59;;;;;;;11.90;7.35;;;;;;;7.56;100.00;99841.00;21103404;28;20113;-69
2021/05/07 05:54:00;;;;;;;10.45;6.70;;;;;;;7.72;99.52;99860.94;21075649;28;20093;-69
2021/05/07 06:04:02;;;;;;;10.43;6.40;;;;;;;7.99;98.45;99863.06;21052095;28;20040;-69
2021/05/07 06:14:03;;;;;;;12.68;7.25;;;;;;;7.96;92.94;99884.06;21090541;28;20040;-69
2021/05/07 06:24:06;;;;;;;10.70;7.10;;;;;;;8.01;91.15;99889.88;21084652;28;20153;-69
2021/05/07 06:34:07;;;;;;;11.43;5.97;;;;;;;8.32;86.42;99903.03;21055922;28;20069;-69
2021/05/07 06:44:09;;;;;;;12.05;5.97;;;;;;;8.74;78.89;99904.25;21065663;28;20044;-69
2021/05/07 06:54:10;;;;;;;10.05;6.13;;;;;;;8.50;74.33;99919.47;21066499;28;20048;-69
2021/05/07 07:04:12;;;;;;;9.27;5.75;;;;;;;8.69;68.91;99934.94;21066142;28;20094;-69
2021/05/07 07:14:13;;;;;;;8.55;5.15;;;;;;;8.73;72.96;99936.50;21061361;28;20327;-69
2021/05/07 07:24:14;;;;;;;10.85;6.10;;;;;;;8.58;72.70;99952.03;21058742;28;20048;-68
2021/05/07 07:34:16;;;;;;;10.65;5.90;;;;;;;8.40;69.30;99965.19;21082253;28;20488;-71
2021/05/07 07:44:18;;;;;;;10.57;6.45;;;;;;;8.63;70.23;99979.66;21113013;28;20048;-71
2021/05/07 07:54:19;;;;;;;8.98;5.68;;;;;;;8.93;69.94;99986.69;21098572;28;20040;-71
2021/05/07 08:04:20;;;;;;;9.18;4.82;;;;;;;9.06;68.28;100009.50;21093509;28;20101;-71
2021/05/07 08:14:21;;;;;;;7.45;4.57;;;;;;;9.19;62.66;100016.59;21084172;28;20117;-71
2021/05/07 08:24:26;;;;;;;7.47;3.50;;;;;;;9.51;57.90;100037.47;21065268;28;20059;-71
2021/05/07 08:34:29;;;;;;;7.68;3.97;;;;;;;9.56;52.49;100048.50;21087609;28;20495;-71
2021/05/07 08:44:30;;;;;;;8.70;4.55;;;;;;;10.27;57.89;100070.59;21097849;28;20036;-71
2021/05/07 08:54:31;;;;;;;7.70;3.63;;;;;;;10.42;52.93;100081.94;21102675;28;20047;-70
2021/05/07 09:04:33;;;;;;;6.70;3.15;;;;;;;10.58;50.01;100094.03;21093289;28;20100;-71
2021/05/07 09:14:34;;;;;;;9.20;4.20;;;;;;;11.03;50.05;100102.66;21106787;28;20044;-70
2021/05/07 09:25:08;;;;;;;7.55;4.35;;;;;;;11.12;50.02;100117.84;21081844;28;20522;-70
2021/05/07 09:35:13;;;;;;;7.93;3.83;;;;;;;10.36;48.70;100129.41;21101190;28;20403;-69
2021/05/07 09:45:26;;;;;;;7.10;3.47;;;;;;;10.49;50.47;100143.44;21098068;28;20047;-70
2021/05/07 09:55:30;;;;;;;8.60;4.18;;;;;;;10.76;49.35;100154.09;21085687;28;20055;-69
2021/05/07 10:05:33;;;;;;;7.63;3.90;;;;;;;11.50;47.05;100173.97;21074532;28;20105;-69
2021/05/07 10:15:39;;;;;;;6.05;3.45;;;;;;;11.53;43.68;100183.41;21058651;28;20389;-69
2021/05/07 10:25:40;;;;;;;8.15;3.47;;;;;;;11.31;42.43;100183.06;21090949;28;20047;-69
2021/05/07 10:35:41;;;;;;;7.13;4.10;;;;;;;11.46;43.19;100187.38;21089757;28;20048;-69
2021/05/07 10:45:47;;;;;;;8.30;4.38;;;;;;;11.83;43.39;100175.47;21058110;28;20228;-69
2021/05/07 10:55:49;;;;;;;8.95;3.53;;;;;;;12.27;41.37;100175.25;21058197;28;20479;-69
2021/05/07 11:05:51;;;;;;;8.52;4.28;;;;;;;11.81;42.40;100220.16;21089609;28;20494;-68
2021/05/07 11:16:01;;;;;;;9.05;3.63;;;;;;;10.12;52.50;100268.44;21078243;28;20056;-69
2021/05/07 11:26:06;;;;;;;9.90;3.53;;;;;;;10.53;57.30;100273.19;21090313;28;20040;-69
2021/05/07 11:36:10;;;;;;;9.07;3.67;;;;;;;10.66;61.68;100284.66;21076638;28;20052;-68
2021/05/07 11:46:11;;;;;;;7.63;3.65;;;;;;;12.00;52.97;100273.13;21092225;28;20449;-70
2021/05/07 11:56:22;;;;;;;8.05;3.72;;;;;;;11.41;51.86;100297.72;21082895;28;20143;-70
2021/05/07 12:06:30;;;;;;;5.47;1.90;;;;;;;9.68;59.68;100337.91;21055657;28;20053;-71
2021/05/07 12:16:32;;;;;;;4.78;1.70;;;;;;;9.61;65.32;100310.41;21065985;28;20039;-68
2021/05/07 12:26:46;;;;;;;5.55;2.40;;;;;;;10.78;63.50;100278.72;21085333;28;20044;-69
2021/05/07 12:37:02;;;;;;;5.18;1.70;;;;;;;11.58;59.13;100289.69;21082620;28;20048;-70
2021/05/07 12:47:04;;;;;;;4.78;2.35;;;;;;;11.51;52.80;100311.97;21065428;28;20040;-70
2021/05/07 12:57:06;;;;;;;7.43;2.20;;;;;;;11.23;53.79;100330.22;21045565;28;20044;-70
2021/05/07 13:07:07;;;;;;;6.05;2.20;;;;;;;11.83;47.75;100323.19;21090479;28;20491;-69
2021/05/07 13:17:16;;;;;;;4.35;2.03;;;;;;;12.26;44.48;100331.03;21110390;28;20043;-70
2021/05/07 13:27:18;;;;;;;4.18;1.70;;;;;;;12.55;40.66;100323.94;21066225;28;20043;-70
2021/05/07 13:37:21;;;;;;;3.83;1.63;;;;;;;12.71;38.97;100357.00;21098005;28;20059;-70
2021/05/07 13:47:24;;;;;;;3.50;1.50;;;;;;;12.97;39.44;100351.88;21071367;28;20048;-70
2021/05/07 13:57:28;;;;;;;5.20;1.63;;;;;;;13.20;38.13;100364.41;21085352;28;20120;-70
2021/05/07 14:07:29;;;;;;;3.92;1.85;;;;;;;13.29;37.13;100358.53;21104158;28;20533;-69
2021/05/07 14:17:30;;;;;;;3.13;1.27;;;;;;;13.44;36.06;100370.66;21115804;28;20449;-69
2021/05/07 14:27:32;;;;;;;2.45;1.20;;;;;;;13.13;33.33;100389.38;21138365;28;20407;-68
2021/05/07 14:37:33;;;;;;;5.15;1.38;;;;;;;13.22;30.67;100381.75;21110441;28;20055;-70
2021/05/07 14:47:35;;;;;;;3.20;1.17;;;;;;;13.51;31.18;100403.47;21072358;28;20040;-71
2021/05/07 14:57:37;;;;;;;5.10;1.35;;;;;;;13.71;30.97;100410.06;21089553;28;20044;-70
2021/05/07 15:07:43;;;;;;;3.58;1.20;;;;;;;13.79;31.55;100410.38;21126990;28;20047;-71
2021/05/07 15:17:46;;;;;;;4.90;1.52;;;;;;;13.97;31.84;100408.28;21077951;28;20046;-69
2021/05/07 15:27:48;;;;;;;1.85;1.00;;;;;;;13.80;32.97;100414.69;21063315;28;20119;-69
2021/05/07 15:37:50;;;;;;;4.70;1.20;;;;;;;13.72;31.29;100435.41;21086723;28;20044;-70
2021/05/07 15:47:51;;;;;;;2.33;1.10;;;;;;;13.95;31.22;100434.72;21078987;28;20044;-70
2021/05/07 15:57:52;;;;;;;4.15;1.25;;;;;;;14.45;32.00;100446.22;21090375;28;20047;-71
2021/05/07 16:07:54;;;;;;;2.90;1.33;;;;;;;14.37;30.93;100452.03;21099804;28;20392;-70
2021/05/07 16:17:55;;;;;;;2.20;1.08;;;;;;;14.41;31.43;100461.41;21100904;28;20048;-69
2021/05/07 16:27:56;;;;;;;2.67;1.13;;;;;;;14.33;30.87;100460.19;21132847;28;20097;-72
2021/05/07 16:38:05;;;;;;;3.95;1.13;;;;;;;14.55;31.35;100471.81;21089257;28;20058;-72
2021/05/07 16:48:07;;;;;;;2.92;1.10;;;;;;;14.01;30.40;100475.56;21107484;28;20048;-71
2021/05/07 16:58:08;;;;;;;3.10;1.20;;;;;;;13.55;31.34;100488.28;21122420;28;20047;-71
2021/05/07 17:08:09;;;;;;;3.15;1.10;;;;;;;13.33;32.95;100488.81;21089155;28;20501;-71
2021/05/07 17:18:10;;;;;;;2.53;1.10;;;;;;;13.73;32.70;100488.84;21108300;28;20073;-71
2021/05/07 17:28:12;;;;;;;3.92;1.27;;;;;;;14.07;30.80;100488.28;21135628;28;20442;-71
2021/05/07 17:38:13;;;;;;;2.95;1.33;;;;;;;14.05;31.22;100503.38;21049916;28;20052;-70
2021/05/07 17:48:15;;;;;;;4.65;2.55;;;;;;;13.55;39.14;100515.44;21093841;28;20101;-71
2021/05/07 17:58:16;;;;;;;5.15;2.75;;;;;;;12.72;41.99;100511.03;21120632;28;20075;-72
2021/05/07 18:08:17;;;;;;;5.10;2.88;;;;;;;12.28;42.75;100526.84;21095362;28;20447;-71
2021/05/07 18:18:19;;;;;;;8.50;2.95;;;;;;;11.71;45.03;100538.88;21114532;28;20039;-71
2021/05/07 18:28:21;;;;;;;5.15;3.10;;;;;;;11.34;47.23;100547.94;21110857;28;20448;-71
2021/05/07 18:38:22;;;;;;;6.68;3.28;;;;;;;11.04;46.94;100553.09;21150748;28;21114;-71
2021/05/07 18:48:24;;;;;;;5.50;3.42;;;;;;;10.77;47.83;100567.63;21107384;28;20540;-71
2021/05/07 18:58:25;;;;;;;6.25;3.35;;;;;;;10.37;52.51;100586.31;21117327;28;20097;-69
2021/05/07 19:08:27;;;;;;;6.07;3.35;;;;;;;9.99;52.57;100586.41;21047650;28;20481;-68
2021/05/07 19:18:29;;;;;;;6.30;4.03;;;;;;;9.81;52.27;100605.59;21080917;28;20040;-69
2021/05/07 19:28:33;;;;;;;7.40;3.60;;;;;;;9.44;56.48;100611.72;21076044;28;20053;-69
2021/05/07 19:38:44;;;;;;;5.55;3.35;;;;;;;9.25;56.43;100619.53;21110839;28;20089;-71
2021/05/07 19:48:47;;;;;;;10.98;6.07;;;;;;;9.01;59.98;100623.25;21114772;28;20044;-69
2021/05/07 19:58:48;;;;;;;7.45;4.50;;;;;;;8.70;61.50;100620.28;21097458;28;20558;-69
2021/05/07 20:08:49;;;;;;;8.07;4.00;;;;;;;8.55;64.64;100627.84;21066931;28;20418;-70
2021/05/07 20:18:52;;;;;;;6.57;3.45;;;;;;;8.22;67.11;100631.84;21036137;28;20044;-71
2021/05/07 20:28:55;;;;;;;8.07;4.77;;;;;;;7.83;68.73;100644.66;21050968;28;20048;-70
2021/05/07 20:38:57;;;;;;;7.40;4.30;;;;;;;7.59;70.89;100643.88;21058340;28;20040;-69
2021/05/07 20:48:59;;;;;;;6.88;3.83;;;;;;;7.01;71.61;100639.13;21064425;28;20048;-71
2021/05/07 20:59:01;;;;;;;7.90;4.30;;;;;;;6.54;74.62;100641.63;21062612;28;20094;-69
2021/05/07 21:09:05;;;;;;;6.90;3.88;;;;;;;6.48;75.70;100638.38;21060558;28;20415;-69
2021/05/07 21:19:07;;;;;;;7.00;4.30;;;;;;;6.17;75.65;100651.53;21028615;28;20500;-70
2021/05/07 21:29:08;;;;;;;7.70;4.15;;;;;;;6.10;76.72;100647.41;21080361;28;20511;-70
2021/05/07 21:39:09;;;;;;;9.82;5.35;;;;;;;5.96;78.71;100630.53;21078089;28;20454;-71
2021/05/07 21:49:11;;;;;;;8.55;4.93;;;;;;;5.79;79.15;100643.16;21059317;28;20051;-70
2021/05/07 21:59:12;;;;;;;6.57;4.30;;;;;;;5.32;81.17;100651.50;21057400;28;20048;-70
2021/05/07 22:09:13;;;;;;;8.13;4.18;;;;;;;5.12;82.00;100652.94;21019947;28;20044;-72
2021/05/07 22:19:14;;;;;;;6.63;4.07;;;;;;;5.13;83.74;100653.75;21011185;22;20045;-70
2021/05/07 22:29:15;;;;;;;9.20;4.50;;;;;;;5.05;81.94;100668.69;20906201;28;20107;-71
2021/05/07 22:39:16;;;;;;;8.30;4.72;;;;;;;4.78;85.34;100669.41;20904262;28;20041;-71
2021/05/07 22:49:17;;;;;;;7.78;4.65;;;;;;;4.62;85.61;100669.00;20954614;28;20518;-72
2021/05/07 22:59:18;;;;;;;8.00;5.22;;;;;;;4.41;84.43;100674.72;20988190;28;20049;-71
2021/05/07 23:09:19;;;;;;;8.23;5.00;;;;;;;4.21;88.50;100663.09;20985608;28;20411;-71
2021/05/07 23:19:20;;;;;;;9.80;5.35;;;;;;;4.17;88.75;100661.44;20981476;28;20412;-71
2021/05/07 23:29:21;;;;;;;8.45;5.22;;;;;;;3.87;88.98;100660.44;20986749;28;20055;-70
2021/05/07 23:39:22;;;;;;;10.48;5.57;;;;;;;3.97;89.67;100655.88;20984471;28;20037;-72
2021/05/07 23:49:23;;;;;;;11.50;5.53;;;;;;;3.66;89.84;100668.66;20979883;28;20049;-72
2021/05/07 23:59:24;;;;;;;9.25;6.47;;;;;;;3.40;91.07;100666.63;20984130;28;20116;-72
